createdAt,value
2023-02-22T00:00:01.629Z,2.60
2023-02-22T00:05:06.440Z,2.40
2023-02-22T00:10:13.348Z,2.78
2023-02-22T00:15:17.537Z,2.40
2023-02-22T00:20:19.903Z,3.03
2023-02-22T00:25:24.183Z,2.50
2023-02-22T00:30:28.990Z,5.95
2023-02-22T00:35:31.483Z,4.55
2023-02-22T00:40:34.719Z,3.42
2023-02-22T00:45:37.433Z,5.00
2023-02-22T00:50:39.352Z,5.05
2023-02-22T00:55:41.451Z,3.47
2023-02-22T01:00:43.464Z,3.35
2023-02-22T01:05:45.620Z,2.92
2023-02-22T01:10:47.867Z,3.40
2023-02-22T01:15:50.007Z,3.35
2023-02-22T01:20:51.832Z,2.95
2023-02-22T01:25:54.108Z,3.63
2023-02-22T01:30:56.299Z,3.45
2023-02-22T01:36:00.032Z,3.40
2023-02-22T01:41:02.546Z,2.85
2023-02-22T01:46:06.482Z,2.25
2023-02-22T01:51:17.677Z,2.63
2023-02-22T01:56:22.184Z,3.15
2023-02-22T02:01:26.119Z,2.80
2023-02-22T02:06:32.209Z,2.50
2023-02-22T02:11:35.130Z,2.90
2023-02-22T02:16:50.292Z,3.60
2023-02-22T02:22:27.046Z,4.85
2023-02-22T02:27:54.995Z,3.78
2023-02-22T02:33:00.209Z,5.47
2023-02-22T02:38:30.626Z,4.45
2023-02-22T02:43:35.209Z,4.50
2023-02-22T02:48:41.800Z,4.43
2023-02-22T02:53:47.426Z,4.15
2023-02-22T02:58:52.744Z,3.75
2023-02-22T03:04:17.328Z,4.30
2023-02-22T03:09:35.613Z,4.38
2023-02-22T03:14:56.026Z,3.80
2023-02-22T03:20:09.743Z,3.45
2023-02-22T03:25:22.482Z,4.40
2023-02-22T03:30:37.815Z,4.25
2023-02-22T03:35:49.246Z,3.63
2023-02-22T03:40:54.788Z,3.58
2023-02-22T03:45:58.640Z,3.65
2023-02-22T03:51:04.393Z,4.35
2023-02-22T03:56:10.475Z,4.43
2023-02-22T04:01:13.490Z,3.60
2023-02-22T04:06:15.354Z,3.85
2023-02-22T04:11:18.887Z,3.95
2023-02-22T04:16:20.696Z,3.60
2023-02-22T04:21:22.817Z,3.95
2023-02-22T04:26:25.839Z,4.00
2023-02-22T04:31:31.811Z,4.00
2023-02-22T04:36:33.956Z,3.03
2023-02-22T04:41:36.050Z,3.92
2023-02-22T04:46:38.216Z,3.20
2023-02-22T04:51:41.204Z,3.45
2023-02-22T04:56:45.964Z,3.47
2023-02-22T05:01:47.751Z,3.72
2023-02-22T05:06:49.452Z,3.53
2023-02-22T05:11:51.039Z,3.40
2023-02-22T05:16:57.645Z,3.72
2023-02-22T05:21:59.754Z,3.70
2023-02-22T05:27:01.462Z,3.80
2023-02-22T05:32:03.166Z,3.80
2023-02-22T05:37:05.260Z,13.95
2023-02-22T05:42:07.129Z,9.75
2023-02-22T05:47:08.788Z,4.88
2023-02-22T05:52:10.412Z,4.45
2023-02-22T05:57:12.281Z,4.95
2023-02-22T06:02:14.098Z,5.30
2023-02-22T06:07:16.252Z,4.63
2023-02-22T06:12:17.933Z,4.07
2023-02-22T06:17:20.642Z,3.78
2023-02-22T06:22:22.523Z,3.50
2023-02-22T06:27:24.135Z,3.30
2023-02-22T06:32:26.377Z,3.25
2023-02-22T06:37:28.207Z,3.33
2023-02-22T06:42:29.896Z,2.90
2023-02-22T06:47:31.496Z,3.15
2023-02-22T06:52:33.148Z,3.15
2023-02-22T06:57:34.724Z,2.63
2023-02-22T07:02:37.228Z,3.13
2023-02-22T07:07:39.694Z,2.95
2023-02-22T07:12:41.327Z,3.25
2023-02-22T07:17:42.927Z,3.88
2023-02-22T07:22:44.535Z,3.42
2023-02-22T07:27:47.282Z,3.33
2023-02-22T07:32:48.969Z,3.40
2023-02-22T07:37:50.772Z,3.47
2023-02-22T07:43:06.593Z,2.50
2023-02-22T07:48:09.361Z,3.13
2023-02-22T07:53:15.098Z,3.58
2023-02-22T07:58:19.495Z,3.72
2023-02-22T08:03:23.749Z,3.75
2023-02-22T08:08:25.433Z,3.95
2023-02-22T08:13:27.246Z,3.85
2023-02-22T08:18:28.888Z,3.50
2023-02-22T08:23:31.645Z,3.60
2023-02-22T08:28:33.288Z,3.38
2023-02-22T08:33:35.582Z,3.40
2023-02-22T08:38:37.774Z,3.35
2023-02-22T08:43:39.421Z,3.70
2023-02-22T08:48:50.746Z,3.50
2023-02-22T08:53:53.596Z,3.88
2023-02-22T08:58:55.955Z,3.10
2023-02-22T09:03:57.799Z,2.80
2023-02-22T09:08:59.467Z,2.75
2023-02-22T09:14:01.060Z,3.50
2023-02-22T09:19:02.669Z,3.15
2023-02-22T09:24:08.471Z,2.83
2023-02-22T09:29:10.547Z,2.92
2023-02-22T09:34:15.736Z,2.90
2023-02-22T09:39:17.888Z,3.35
2023-02-22T09:44:28.995Z,3.20
2023-02-22T09:49:57.450Z,3.15
2023-02-22T09:55:23.256Z,2.88
2023-02-22T10:00:33.760Z,3.20
2023-02-22T10:05:42.917Z,2.50
2023-02-22T10:16:03.196Z,2.50
2023-02-22T10:21:31.611Z,2.38
2023-02-22T10:31:46.187Z,2.50
2023-02-22T10:36:51.275Z,2.22
2023-02-22T10:41:57.272Z,2.40
2023-02-22T10:47:01.677Z,2.50
2023-02-22T10:52:12.819Z,2.38
2023-02-22T10:57:18.468Z,2.97
2023-02-22T11:02:31.861Z,2.50
2023-02-22T11:07:36.193Z,2.22
2023-02-22T11:12:41.603Z,2.15
2023-02-22T11:17:46.210Z,1.88
2023-02-22T11:22:54.632Z,1.52
2023-02-22T11:28:11.113Z,1.10
2023-02-22T11:33:15.716Z,1.50
2023-02-22T11:38:31.241Z,1.23
2023-02-22T11:43:32.869Z,1.33
2023-02-22T11:48:40.122Z,0.98
2023-02-22T11:54:00.923Z,0.90
2023-02-22T11:59:30.476Z,0.68
2023-02-22T12:04:50.427Z,0.80
2023-02-22T12:10:18.509Z,0.68
2023-02-22T12:15:36.881Z,0.90
2023-02-22T12:20:56.807Z,0.80
2023-02-22T12:26:08.309Z,0.70
2023-02-22T12:31:20.268Z,0.80
2023-02-22T12:36:28.236Z,0.82
2023-02-22T12:41:54.489Z,0.55
2023-02-22T12:46:58.377Z,0.50
2023-02-22T12:52:21.921Z,0.95
2023-02-22T12:57:33.868Z,0.95
2023-02-22T13:02:40.152Z,1.13
2023-02-22T13:07:57.023Z,1.20
2023-02-22T13:13:11.238Z,1.23
2023-02-22T13:18:18.386Z,1.33
2023-02-22T13:23:46.059Z,1.38
2023-02-22T13:29:09.264Z,1.52
2023-02-22T13:34:40.320Z,2.38
2023-02-22T13:40:03.477Z,1.95
2023-02-22T13:45:39.194Z,2.03
2023-02-22T13:51:02.409Z,2.30
2023-02-22T13:56:04.536Z,2.00
2023-02-22T14:01:06.159Z,2.00
2023-02-22T14:06:37.083Z,1.90
2023-02-22T14:11:43.143Z,1.90
2023-02-22T14:16:45.461Z,2.00
2023-02-22T14:22:07.396Z,1.75
2023-02-22T14:27:10.692Z,2.15
2023-02-22T14:32:15.072Z,1.90
2023-02-22T14:37:24.921Z,2.45
2023-02-22T14:42:34.689Z,2.72
2023-02-22T14:47:43.902Z,2.78
2023-02-22T14:58:11.026Z,2.22
2023-02-22T15:03:32.987Z,2.80
2023-02-22T15:08:34.691Z,2.40
2023-02-22T15:13:36.308Z,1.98
2023-02-22T15:18:42.319Z,3.20
2023-02-22T15:23:47.068Z,3.05
2023-02-22T15:28:54.380Z,2.30
2023-02-22T15:33:56.595Z,2.78
2023-02-22T15:38:58.777Z,2.42
2023-02-22T15:44:17.815Z,2.92
2023-02-22T15:49:24.821Z,3.15
2023-02-22T15:54:28.049Z,2.88
2023-02-22T15:59:33.791Z,3.67
2023-02-22T16:04:35.865Z,3.60
2023-02-22T16:09:37.748Z,3.22
2023-02-22T16:14:44.948Z,4.32
2023-02-22T16:19:50.336Z,4.13
2023-02-22T16:24:54.583Z,3.78
2023-02-22T16:30:22.188Z,3.92
2023-02-22T16:35:28.797Z,4.32
2023-02-22T16:40:34.568Z,4.93
2023-02-22T16:45:36.300Z,4.68
2023-02-22T16:50:37.985Z,5.65
2023-02-22T16:55:44.718Z,5.57
2023-02-22T17:00:46.432Z,5.65
2023-02-22T17:05:48.085Z,7.03
2023-02-22T17:10:51.791Z,6.30
2023-02-22T17:15:56.550Z,6.32
2023-02-22T17:20:58.109Z,6.40
2023-02-22T17:26:04.635Z,5.55
2023-02-22T17:31:07.176Z,5.85
2023-02-22T17:36:08.863Z,6.53
2023-02-22T17:41:10.667Z,6.65
2023-02-22T17:46:12.551Z,6.65
2023-02-22T17:51:14.353Z,6.25
2023-02-22T17:56:20.813Z,6.88
2023-02-22T18:01:28.736Z,6.00
2023-02-22T18:06:32.735Z,4.43
2023-02-22T18:11:34.435Z,6.80
2023-02-22T18:16:38.896Z,5.97
2023-02-22T18:21:40.727Z,7.18
2023-02-22T18:26:42.520Z,6.72
2023-02-22T18:31:45.483Z,7.95
2023-02-22T18:36:48.628Z,9.57
2023-02-22T18:41:50.425Z,8.52
2023-02-22T18:46:53.527Z,9.18
2023-02-22T18:51:55.122Z,8.73
2023-02-22T18:56:56.963Z,8.27
2023-02-22T19:01:58.740Z,7.85
2023-02-22T19:07:00.352Z,8.73
2023-02-22T19:12:02.403Z,9.50
2023-02-22T19:17:07.322Z,8.35
2023-02-22T19:22:09.372Z,8.65
2023-02-22T19:27:11.927Z,10.40
2023-02-22T19:32:13.763Z,10.75
2023-02-22T19:37:18.753Z,11.63
2023-02-22T19:42:20.401Z,13.77
2023-02-22T19:47:22.620Z,12.98
2023-02-22T19:52:24.278Z,13.30
2023-02-22T19:57:26.773Z,13.88
2023-02-22T20:02:28.456Z,13.13
2023-02-22T20:07:30.033Z,12.80
2023-02-22T20:12:31.750Z,13.80
2023-02-22T20:17:33.866Z,11.82
2023-02-22T20:22:35.672Z,12.63
2023-02-22T20:27:37.603Z,11.45
2023-02-22T20:32:39.662Z,12.40
2023-02-22T20:37:42.595Z,13.10
2023-02-22T20:42:44.584Z,14.20
2023-02-22T20:47:46.211Z,12.00
2023-02-22T20:52:47.794Z,11.07
2023-02-22T20:57:49.433Z,11.63
2023-02-22T21:02:51.515Z,12.15
2023-02-22T21:07:53.855Z,12.88
2023-02-22T21:12:56.971Z,13.27
2023-02-22T21:18:00.436Z,11.27
2023-02-22T21:23:02.960Z,13.73
2023-02-22T21:28:05.456Z,12.60
2023-02-22T21:33:07.068Z,13.00
2023-02-22T21:38:14.550Z,14.32
2023-02-22T21:43:16.629Z,15.57
2023-02-22T21:48:18.191Z,15.60
2023-02-22T21:53:20.287Z,15.15
2023-02-22T21:58:22.478Z,16.13
2023-02-22T22:03:24.526Z,15.68
2023-02-22T22:08:27.996Z,14.80
2023-02-22T22:13:29.567Z,15.75
2023-02-22T22:18:31.158Z,14.95
2023-02-22T22:23:33.209Z,14.25
2023-02-22T22:28:35.620Z,16.10
2023-02-22T22:33:37.795Z,14.25
2023-02-22T22:38:39.439Z,14.88
2023-02-22T22:43:46.034Z,13.63
2023-02-22T22:48:48.077Z,13.90
2023-02-22T22:53:51.014Z,14.70
2023-02-22T22:58:55.544Z,14.63
2023-02-22T23:04:02.081Z,14.30
2023-02-22T23:09:13.819Z,15.82
2023-02-22T23:14:21.223Z,15.48
2023-02-22T23:19:22.818Z,15.02
2023-02-22T23:24:27.524Z,16.63
2023-02-22T23:29:29.981Z,16.88
2023-02-22T23:34:31.935Z,17.25
2023-02-22T23:39:33.544Z,15.13
2023-02-22T23:44:35.338Z,16.65
2023-02-22T23:49:38.479Z,15.13
2023-02-22T23:54:43.878Z,15.95
2023-02-22T23:59:46.394Z,15.55
